Time;durP1;ratioP1;P1;durP2;ratioP2;P2;SDS_P1;SDS_P2;PMS_P1;PMS_P2;Temp;Humidity;BMP_temperature;BMP_pressure;BME280_temperature;BME280_humidity;BME280_pressure;Samples;Min_cycle;Max_cycle;Signal;HPM_P1;HPM_P2
2022/05/24 00:01:31;;;;;;;4.57;4.07;;;18.40;99.90;;;-141.84;64.65;18692.13;5074104;28;20207;-54
2022/05/24 00:03:59;;;;;;;5.85;3.85;;;18.40;99.90;;;-141.84;64.75;18753.09;5073843;28;20238;-53
2022/05/24 00:06:31;;;;;;;4.18;3.72;;;18.50;99.90;;;-141.84;65.38;18716.53;5073922;28;20219;-53
2022/05/24 00:09:01;;;;;;;4.78;3.85;;;18.60;99.90;;;-141.84;65.58;18684.00;5073917;28;20295;-51
2022/05/24 00:11:32;;;;;;;6.25;4.28;;;18.60;99.90;;;-141.84;68.64;18645.41;5073774;28;20215;-53
2022/05/24 00:14:00;;;;;;;5.03;4.10;;;18.70;99.90;;;-141.84;72.41;18594.63;5073679;28;20225;-53
2022/05/24 00:16:29;;;;;;;5.28;3.75;;;18.60;99.90;;;-141.84;77.19;18415.81;5073911;28;20243;-49
2022/05/24 00:18:57;;;;;;;4.97;3.25;;;18.60;99.90;;;-141.84;80.69;18365.03;5073488;28;20244;-53
2022/05/24 00:21:26;;;;;;;5.20;3.63;;;18.40;99.90;;;-141.84;83.11;18367.06;5073627;28;20232;-52
2022/05/24 00:23:54;;;;;;;5.93;3.78;;;18.30;99.90;;;-141.84;84.56;18298.00;5073429;28;20236;-53
2022/05/24 00:26:31;;;;;;;5.97;3.60;;;18.30;99.90;;;-141.84;85.83;18269.56;5073520;28;20283;-51
2022/05/24 00:28:59;;;;;;;6.22;3.42;;;18.20;99.90;;;-141.84;86.73;18255.34;5073593;28;20243;-51
2022/05/24 00:31:27;;;;;;;5.22;3.33;;;18.20;99.90;;;-141.84;88.57;18198.44;5073733;28;20319;-51
2022/05/24 00:33:55;;;;;;;5.65;3.22;;;18.10;99.90;;;-141.84;88.63;18184.22;5073954;28;20197;-54
2022/05/24 00:36:23;;;;;;;4.78;3.63;;;18.10;99.90;;;-141.84;88.65;18145.63;5073346;28;20205;-51
2022/05/24 00:38:51;;;;;;;5.53;3.25;;;18.10;99.90;;;-141.84;88.52;18147.66;5073292;28;20255;-52
2022/05/24 00:41:26;;;;;;;10.02;3.40;;;18.10;99.90;;;-141.84;88.81;18123.28;5072918;28;20287;-52
2022/05/24 00:43:59;;;;;;;4.38;3.10;;;18.10;99.90;;;-141.84;88.80;18102.97;5073438;28;20215;-52
2022/05/24 00:46:35;;;;;;;6.03;2.90;;;18.10;99.90;;;-141.84;89.30;18074.53;5073267;28;20279;-51
2022/05/24 00:49:08;;;;;;;5.07;3.60;;;18.10;99.90;;;-141.84;87.85;18127.34;5073128;28;20272;-52
2022/05/24 00:51:45;;;;;;;5.85;3.20;;;18.20;99.90;;;-141.84;88.03;18090.78;5072985;28;20307;-51
2022/05/24 00:54:13;;;;;;;4.65;3.00;;;18.20;99.90;;;-141.84;88.24;18111.09;5073157;28;20188;-54
2022/05/24 00:56:54;;;;;;;5.50;3.33;;;18.20;99.90;;;-141.84;88.80;18062.34;5073174;28;20211;-52
2022/05/24 00:59:35;;;;;;;5.82;3.10;;;18.20;99.90;;;-141.84;87.74;18056.25;5072973;28;20212;-55
2022/05/24 01:02:04;;;;;;;6.75;3.63;;;18.20;99.90;;;-141.84;87.21;18074.53;5073286;28;20220;-55
2022/05/24 01:04:32;;;;;;;5.80;3.13;;;18.20;99.90;;;-141.84;88.71;18023.75;5072731;28;20668;-53
2022/05/24 01:07:00;;;;;;;4.88;3.10;;;18.20;99.90;;;-141.84;88.26;18046.09;5072780;28;20287;-53
2022/05/24 01:09:38;;;;;;;5.78;3.20;;;18.20;99.90;;;-141.84;87.84;18017.66;5072618;28;20303;-52
2022/05/24 01:12:15;;;;;;;6.75;3.33;;;18.10;99.90;;;-141.84;87.69;18001.41;5072588;28;20276;-52
2022/05/24 01:14:44;;;;;;;3.97;2.83;;;18.20;99.90;;;-141.84;87.97;17995.31;5072332;28;20644;-55
2022/05/24 01:17:12;;;;;;;5.63;2.75;;;18.20;99.90;;;-141.84;86.85;17999.38;5072487;28;20558;-52
2022/05/24 01:19:45;;;;;;;3.15;2.70;;;18.20;99.90;;;-141.84;88.29;17940.47;5072153;28;20580;-54
2022/05/24 01:22:43;;;;;;;5.68;2.90;;;18.20;99.90;;;-141.84;89.16;17899.81;5072332;28;20578;-53
2022/05/24 01:25:25;;;;;;;3.92;3.30;;;18.20;99.90;;;-141.84;90.09;17806.38;5071982;28;20211;-53
2022/05/24 01:27:55;;;;;;;3.67;2.80;;;18.10;99.90;;;-141.84;91.03;17798.25;5072418;28;20290;-52
2022/05/24 01:30:24;;;;;;;4.03;2.75;;;18.00;99.90;;;-141.84;91.80;17674.34;5072096;28;20739;-53
2022/05/24 01:38:24;;;;;;;3.55;2.70;;;17.90;99.90;;;-141.84;90.68;17652.00;5072058;28;20228;-53
2022/05/24 01:40:56;;;;;;;6.95;2.90;;;17.90;99.90;;;-141.84;90.88;17641.84;5071661;28;20668;-53
2022/05/24 01:43:28;;;;;;;3.95;2.72;;;17.90;99.90;;;-141.84;91.41;17599.19;5072055;28;20209;-54
2022/05/24 01:46:02;;;;;;;4.97;2.72;;;17.90;99.90;;;-141.84;89.71;17668.25;5071830;28;20207;-55
2022/05/24 01:48:37;;;;;;;4.20;2.72;;;17.90;99.90;;;-141.84;89.92;17639.81;5072005;28;20195;-53
2022/05/24 01:51:09;;;;;;;3.97;2.50;;;17.90;99.90;;;-141.84;91.03;17587.00;5071833;28;20240;-53
2022/05/24 01:53:47;;;;;;;7.05;2.70;;;17.90;99.90;;;-141.84;90.03;17619.50;5071809;28;20488;-55
2022/05/24 01:56:45;;;;;;;3.63;2.88;;;17.90;99.90;;;-141.84;90.34;17587.00;5071792;28;20197;-52
2022/05/24 01:59:19;;;;;;;4.13;2.80;;;17.90;99.90;;;-141.84;90.42;17607.31;5071552;28;20569;-53
2022/05/24 02:01:51;;;;;;;2.40;2.10;;;17.90;99.90;;;-141.84;90.18;17603.25;5071798;28;20189;-52
2022/05/24 02:04:21;;;;;;;3.70;2.50;;;17.90;99.90;;;-141.84;89.51;17625.59;5071541;28;20667;-51
2022/05/24 02:07:01;;;;;;;3.83;2.70;;;17.90;99.90;;;-141.84;89.73;17623.56;5071802;28;20189;-54
2022/05/24 02:09:30;;;;;;;4.80;2.83;;;17.90;99.90;;;-141.84;87.33;17743.41;5071255;28;20719;-53
2022/05/24 02:12:03;;;;;;;3.15;2.42;;;18.10;99.90;;;-141.84;87.64;17702.78;5071248;28;20217;-54
2022/05/24 02:14:38;;;;;;;3.08;2.45;;;18.10;99.90;;;-141.84;87.54;17725.13;5071358;28;20712;-54
2022/05/24 02:17:14;;;;;;;3.40;2.40;;;18.10;99.90;;;-141.84;88.16;17674.34;5071725;28;20180;-52
2022/05/24 02:19:48;;;;;;;2.35;2.15;;;18.10;99.90;;;-141.84;88.52;17645.91;5071526;28;20275;-53
2022/05/24 02:22:21;;;;;;;3.35;2.30;;;18.10;99.90;;;-141.84;87.90;17704.81;5071234;28;20637;-50
2022/05/24 02:24:57;;;;;;;3.65;2.55;;;18.10;99.90;;;-141.84;87.23;17737.31;5071435;28;20189;-53
2022/05/24 02:27:27;;;;;;;2.70;2.50;;;18.20;99.90;;;-141.84;87.72;17692.63;5071787;28;20637;-51
2022/05/24 02:29:58;;;;;;;2.85;2.38;;;18.20;99.90;;;-141.84;86.50;17743.41;5071252;28;20339;-54
2022/05/24 02:32:26;;;;;;;5.75;2.55;;;18.20;99.90;;;-141.84;85.69;17798.25;5071471;28;20660;-55
2022/05/24 02:34:54;;;;;;;3.30;2.25;;;18.30;99.90;;;-141.84;85.54;17812.47;5071465;28;20287;-52
2022/05/24 02:37:22;;;;;;;3.92;2.75;;;18.30;99.90;;;-141.84;85.06;17818.56;5071469;28;20201;-54
2022/05/24 02:42:36;;;;;;;4.20;2.63;;;18.40;99.90;;;-141.84;84.74;17881.53;5071415;28;20185;-54
2022/05/24 02:45:07;;;;;;;2.90;2.60;;;18.40;99.90;;;-141.84;84.56;17879.50;5071584;28;20205;-49
2022/05/24 02:47:35;;;;;;;2.85;2.10;;;18.40;99.90;;;-141.84;86.52;17765.75;5073143;28;20731;-53
2022/05/24 02:50:04;;;;;;;3.40;2.40;;;18.40;99.90;;;-141.84;86.61;17810.44;5075177;28;20656;-50
2022/05/24 02:52:32;;;;;;;2.95;2.20;;;18.40;99.90;;;-141.84;86.25;17800.28;5075135;28;20223;-52
2022/05/24 02:55:00;;;;;;;3.95;2.38;;;18.30;99.90;;;-141.84;86.30;17775.91;5075102;28;20291;-50
2022/05/24 02:57:28;;;;;;;5.20;2.30;;;18.30;99.90;;;-141.84;86.52;17741.38;5074939;28;20805;-52
2022/05/24 02:59:56;;;;;;;3.05;2.38;;;18.30;99.90;;;-141.84;85.55;17824.66;5075140;28;20231;-54
2022/05/24 03:02:25;;;;;;;3.03;2.50;;;18.30;99.90;;;-141.84;86.83;17731.22;5074896;28;20288;-50
2022/05/24 03:04:54;;;;;;;2.33;2.13;;;18.20;99.90;;;-141.84;84.71;17824.66;5074582;28;20216;-52
2022/05/24 03:10:08;;;;;;;3.10;2.50;;;18.30;99.90;;;-141.84;84.53;17855.13;5074493;28;20693;-50
2022/05/24 03:15:22;;;;;;;2.90;2.60;;;18.30;99.90;;;-141.84;83.01;17926.25;5074592;28;20239;-55
2022/05/24 03:17:51;;;;;;;3.50;2.83;;;18.30;99.90;;;-141.84;82.99;17887.63;5074842;28;20200;-55
2022/05/24 03:20:20;;;;;;;6.93;3.40;;;18.20;99.90;;;-141.84;81.61;17948.59;5074683;28;20303;-53
2022/05/24 03:22:48;;;;;;;2.85;2.65;;;18.20;99.90;;;-141.84;81.75;17948.59;5074449;28;20287;-54
2022/05/24 03:25:16;;;;;;;3.40;3.10;;;18.20;99.90;;;-141.84;82.46;17905.91;5074525;28;20204;-53
2022/05/24 03:27:46;;;;;;;3.60;3.30;;;18.10;99.90;;;-141.84;79.78;18046.09;5074695;28;20197;-52
2022/05/24 03:30:15;;;;;;;3.22;2.75;;;18.10;99.90;;;-141.84;81.29;18050.16;5074729;28;20177;-54
2022/05/24 03:32:44;;;;;;;3.38;3.08;;;18.10;99.90;;;-141.84;80.88;17991.25;5074411;28;20221;-51
2022/05/24 03:35:13;;;;;;;6.97;3.00;;;18.10;99.90;;;-141.84;80.55;18031.88;5074386;28;20232;-53
2022/05/24 03:37:41;;;;;;;3.00;2.70;;;18.10;99.90;;;-141.84;80.69;18025.78;5074361;28;20209;-50
2022/05/24 03:40:12;;;;;;;4.32;3.22;;;18.00;99.90;;;-141.84;81.68;17975.00;5073667;28;20685;-55
2022/05/24 03:42:40;;;;;;;4.13;3.13;;;17.90;99.90;;;-141.84;82.24;17956.72;5073208;28;20192;-54
2022/05/24 03:45:10;;;;;;;3.70;3.05;;;17.80;99.90;;;-141.84;82.63;17936.41;5073195;28;20192;-52
2022/05/24 03:47:40;;;;;;;3.33;3.08;;;17.80;99.90;;;-141.84;83.00;17938.44;5073248;28;20191;-52
2022/05/24 03:50:10;;;;;;;3.72;3.33;;;17.70;99.90;;;-141.84;80.83;17975.00;5072742;28;20206;-51
2022/05/24 03:52:39;;;;;;;3.88;3.58;;;17.80;99.90;;;-141.84;80.01;18003.44;5072907;28;20224;-52
2022/05/24 03:55:08;;;;;;;3.88;3.50;;;17.80;99.90;;;-141.84;79.80;18054.22;5072887;28;20236;-53
2022/05/24 04:00:24;;;;;;;3.78;3.45;;;17.80;99.90;;;-141.84;80.09;18037.97;5072958;28;20285;-51
2022/05/24 04:02:52;;;;;;;3.70;3.40;;;17.80;99.90;;;-141.84;80.44;18003.44;5072990;28;20189;-51
2022/05/24 04:05:20;;;;;;;3.83;3.45;;;17.80;99.90;;;-141.84;79.92;18044.06;5072488;28;20207;-54
2022/05/24 04:07:50;;;;;;;3.72;3.42;;;17.80;99.90;;;-141.84;79.93;18060.31;5072558;28;20751;-56
2022/05/24 04:10:20;;;;;;;4.30;4.00;;;17.70;99.90;;;-141.84;80.12;17997.34;5072279;28;20748;-53
2022/05/24 04:12:48;;;;;;;4.35;3.95;;;17.70;99.90;;;-141.84;80.37;18017.66;5072510;28;20211;-52
2022/05/24 04:15:18;;;;;;;3.83;3.53;;;17.70;99.90;;;-141.84;80.50;17995.31;5072741;28;20201;-53
2022/05/24 04:17:47;;;;;;;4.15;3.85;;;17.60;99.90;;;-141.84;80.28;18017.66;5072333;28;20196;-51
2022/05/24 04:20:16;;;;;;;4.28;3.97;;;17.60;99.90;;;-141.84;79.91;18017.66;5072473;28;20201;-51
2022/05/24 04:22:44;;;;;;;4.35;3.95;;;17.70;99.90;;;-141.84;79.61;18054.22;5072587;28;20211;-54
2022/05/24 04:25:15;;;;;;;4.55;4.15;;;17.70;99.90;;;-141.84;80.28;18052.19;5072402;28;20296;-54
2022/05/24 04:27:43;;;;;;;4.70;4.30;;;17.70;99.90;;;-141.84;80.35;18040.00;5072524;28;20279;-54
2022/05/24 04:30:14;;;;;;;4.22;3.92;;;17.60;99.90;;;-141.84;80.91;18007.50;5072390;28;20245;-52
2022/05/24 04:32:42;;;;;;;5.07;4.68;;;17.70;99.90;;;-141.84;79.65;18070.47;5072395;28;20280;-55
2022/05/24 04:35:11;;;;;;;4.32;3.92;;;17.70;99.90;;;-141.84;79.26;18076.56;5072289;28;20208;-51
2022/05/24 04:37:39;;;;;;;4.60;4.20;;;17.80;99.90;;;-141.84;79.88;18056.25;5072645;28;20229;-54
2022/05/24 04:40:09;;;;;;;4.40;4.00;;;17.80;99.90;;;-141.84;79.84;18052.19;5037004;28;1012827;-53
2022/05/24 04:42:38;;;;;;;3.95;3.65;;;17.80;99.90;;;-141.84;80.28;18070.47;5073576;28;20380;-54
2022/05/24 04:45:10;;;;;;;4.50;4.18;;;17.90;99.90;;;-141.84;78.35;18094.84;5073192;28;20196;-53
2022/05/24 04:47:39;;;;;;;4.43;4.03;;;18.00;99.90;;;-141.84;79.50;18094.84;5073210;28;20189;-53
2022/05/24 04:50:11;;;;;;;4.28;3.85;;;18.10;99.90;;;-141.84;79.28;18076.56;5073143;28;20201;-51
2022/05/24 04:52:42;;;;;;;4.45;4.05;;;18.20;99.90;;;-141.84;74.54;18289.88;5073011;28;20621;-53
2022/05/24 04:55:14;;;;;;;4.78;4.28;;;18.70;99.90;;;-141.84;67.43;18553.97;5072820;28;20300;-54
2022/05/24 04:57:44;;;;;;;4.85;4.35;;;19.50;99.90;;;-141.84;61.74;18818.09;5072756;28;20612;-54
2022/05/24 05:00:14;;;;;;;3.80;3.50;;;20.40;99.90;;;-141.84;57.88;19059.91;5073083;28;20268;-52
2022/05/24 05:02:42;;;;;;;4.05;3.63;;;21.50;99.90;;;-141.84;54.45;19311.88;5072918;28;20200;-54
2022/05/24 05:05:11;;;;;;;4.55;4.18;;;22.40;99.90;;;-141.84;53.19;19315.94;5072725;28;20669;-51
2022/05/24 05:07:39;;;;;;;4.38;3.88;;;22.60;99.90;;;-141.84;55.17;19222.47;5072764;28;20193;-52
2022/05/24 05:10:09;;;;;;;4.82;4.43;;;22.30;99.90;;;-141.84;55.32;19173.69;5071515;28;20293;-52
2022/05/24 05:12:38;;;;;;;5.28;4.75;;;22.00;99.90;;;-141.84;57.28;19118.84;5072602;28;20211;-55
2022/05/24 05:15:08;;;;;;;4.70;4.30;;;21.80;99.90;;;-141.84;57.70;19066.00;5072536;28;20223;-55
2022/05/24 05:17:36;;;;;;;4.75;4.32;;;21.60;99.90;;;-141.84;59.10;19017.25;5073691;28;20196;-53
2022/05/24 05:20:07;;;;;;;7.80;5.22;;;21.40;99.90;;;-141.84;60.88;18921.75;5073141;28;20204;-54
2022/05/24 05:22:34;;;;;;;5.78;5.28;;;21.00;99.90;;;-141.84;63.23;18858.75;5073294;28;20196;-52
2022/05/24 05:25:03;;;;;;;5.63;5.05;;;20.50;99.90;;;-141.84;63.40;18870.94;5072973;28;20561;-55
2022/05/24 05:27:30;;;;;;;6.78;6.10;;;20.30;99.90;;;-141.84;62.68;18856.72;5073311;28;20318;-50
2022/05/24 05:32:50;;;;;;;6.53;5.93;;;20.40;99.90;;;-141.84;62.30;18820.16;5073154;28;20184;-50
2022/05/24 05:35:19;;;;;;;8.63;5.70;;;20.40;99.90;;;-141.84;62.46;18862.81;5072834;28;20593;-52
2022/05/24 05:37:47;;;;;;;6.32;5.72;;;20.50;99.90;;;-141.84;63.04;18846.56;5073112;28;20200;-55
2022/05/24 05:40:15;;;;;;;6.57;5.95;;;20.60;99.90;;;-141.84;64.18;18789.66;5072710;28;20224;-50
2022/05/24 05:42:43;;;;;;;5.72;5.22;;;20.40;99.90;;;-141.84;64.08;18779.50;5073035;28;20199;-54
2022/05/24 05:45:12;;;;;;;6.60;5.90;;;20.30;99.90;;;-141.84;65.17;18716.53;5072978;28;20283;-55
2022/05/24 05:47:40;;;;;;;7.72;6.93;;;20.20;99.90;;;-141.84;64.67;18742.94;5072866;28;20207;-53
2022/05/24 05:50:10;;;;;;;6.18;5.13;;;20.00;99.90;;;-141.84;64.68;18720.59;5072848;28;20228;-53
2022/05/24 05:52:38;;;;;;;5.65;5.05;;;20.00;99.90;;;-141.84;65.20;18738.88;5072993;28;20235;-54
2022/05/24 05:55:08;;;;;;;5.03;4.53;;;19.90;99.90;;;-141.84;64.49;18740.91;5072573;28;20221;-53
2022/05/24 05:57:41;;;;;;;4.78;4.38;;;20.00;99.90;;;-141.84;63.96;18740.91;5072814;28;20268;-55
2022/05/24 06:00:11;;;;;;;5.78;5.28;;;20.10;99.90;;;-141.84;62.09;18809.97;5072609;28;20200;-50
2022/05/24 06:02:39;;;;;;;5.63;5.22;;;20.20;99.90;;;-141.84;62.18;18799.81;5072331;28;20197;-52
2022/05/24 06:05:10;;;;;;;5.70;5.10;;;20.20;99.90;;;-141.84;61.90;18846.56;5072640;28;20232;-54
2022/05/24 06:07:38;;;;;;;5.75;5.25;;;20.30;99.90;;;-141.84;61.28;18868.91;5072512;28;20177;-57
2022/05/24 06:10:11;;;;;;;6.20;5.35;;;20.40;99.90;;;-141.84;61.36;18834.38;5072498;28;20204;-50
2022/05/24 06:12:39;;;;;;;6.03;5.53;;;20.40;99.90;;;-141.84;62.18;18809.97;5072312;28;20574;-53
2022/05/24 06:15:10;;;;;;;6.50;5.90;;;20.10;99.90;;;-141.84;62.18;18842.50;5072428;28;20243;-57
2022/05/24 06:17:45;;;;;;;6.03;5.53;;;20.10;99.90;;;-141.84;62.51;18807.94;5072355;28;20276;-57
2022/05/24 06:20:15;;;;;;;6.03;5.53;;;20.20;99.90;;;-141.84;60.58;18842.50;5071882;28;20703;-54
2022/05/24 06:22:43;;;;;;;5.88;5.38;;;20.20;99.90;;;-141.84;62.30;18795.75;5072384;28;20542;-58
2022/05/24 06:25:11;;;;;;;6.47;5.90;;;20.30;99.90;;;-141.84;62.03;18820.16;5072241;28;20303;-53
2022/05/24 06:27:39;;;;;;;5.68;5.18;;;20.40;99.90;;;-141.84;62.68;18834.38;5072011;28;20271;-52
2022/05/24 06:30:10;;;;;;;6.40;5.80;;;20.50;99.90;;;-141.84;61.80;18830.31;5072357;28;20215;-53
2022/05/24 06:32:38;;;;;;;7.07;6.47;;;20.50;99.90;;;-141.84;62.60;18818.09;5071873;28;20568;-51
2022/05/24 06:35:07;;;;;;;7.28;6.68;;;20.30;99.90;;;-141.84;63.39;18781.53;5072038;28;20599;-53
2022/05/24 06:37:36;;;;;;;7.43;6.50;;;20.20;99.90;;;-141.84;64.88;18732.78;5072303;28;20207;-49
2022/05/24 06:40:06;;;;;;;7.03;6.35;;;20.10;99.90;;;-141.84;65.68;18728.72;5071947;28;20212;-51
2022/05/24 06:42:34;;;;;;;7.30;6.57;;;20.00;99.90;;;-141.84;65.18;18710.44;5071985;28;20216;-54
2022/05/24 06:45:02;;;;;;;7.40;6.65;;;20.00;99.90;;;-141.84;64.34;18753.09;5071780;28;20220;-54
2022/05/24 06:47:30;;;;;;;7.93;7.22;;;20.00;99.90;;;-141.84;61.60;18797.78;5072149;28;20205;-55
2022/05/24 06:49:58;;;;;;;8.13;7.32;;;20.20;99.90;;;-141.84;62.45;18820.16;5071741;28;20196;-54
2022/05/24 06:52:27;;;;;;;7.40;6.78;;;20.10;99.90;;;-141.84;63.17;18785.59;5072153;28;20201;-52
2022/05/24 06:54:56;;;;;;;7.32;6.63;;;20.00;99.90;;;-141.84;63.22;18783.56;5071834;28;20663;-53
2022/05/24 06:57:24;;;;;;;6.82;6.22;;;20.00;99.90;;;-141.84;62.75;18803.88;5071869;28;20719;-51
2022/05/24 07:02:37;;;;;;;9.20;7.07;;;20.20;99.90;;;-141.84;60.49;18856.72;5072007;28;20189;-57
2022/05/24 07:05:12;;;;;;;8.02;6.70;;;20.30;99.90;;;-141.84;60.19;18868.91;5071823;28;20295;-56
2022/05/24 07:07:41;;;;;;;7.65;6.07;;;20.40;99.90;;;-141.84;58.66;18901.41;5071969;28;20223;-54
2022/05/24 07:10:15;;;;;;;6.47;5.88;;;20.50;99.90;;;-141.84;57.51;18938.00;5071267;28;20683;-56
2022/05/24 07:12:45;;;;;;;4.65;4.25;;;20.70;99.90;;;-141.84;55.54;19041.63;5071256;28;20203;-55
2022/05/24 07:15:13;;;;;;;5.38;4.88;;;20.80;99.90;;;-141.84;54.87;19053.81;5071416;28;20312;-52
2022/05/24 07:17:41;;;;;;;5.30;4.78;;;20.80;99.90;;;-141.84;54.00;19094.44;5071713;28;20201;-54
2022/05/24 07:20:11;;;;;;;4.18;3.78;;;20.90;99.90;;;-141.84;53.48;19139.16;5071114;28;20197;-50
2022/05/24 07:22:39;;;;;;;5.60;4.45;;;20.90;99.90;;;-141.84;53.27;19094.44;5071074;28;20213;-53
2022/05/24 07:25:08;;;;;;;5.18;4.55;;;20.90;99.90;;;-141.84;52.96;19110.72;5071290;28;20201;-54
2022/05/24 07:27:37;;;;;;;5.38;4.40;;;21.00;99.90;;;-141.84;54.01;19084.28;5071513;28;20211;-54
2022/05/24 07:30:08;;;;;;;5.32;4.38;;;20.90;99.90;;;-141.84;53.70;19084.28;5071504;28;20293;-53
2022/05/24 07:32:36;;;;;;;5.47;4.00;;;20.90;99.90;;;-141.84;54.02;19108.69;5071815;28;20276;-54
2022/05/24 07:35:05;;;;;;;4.25;3.85;;;20.80;99.90;;;-141.84;54.41;19102.56;5074845;28;20228;-53
2022/05/24 07:37:33;;;;;;;4.38;3.72;;;20.90;99.90;;;-141.84;53.47;19155.41;5075072;28;20231;-54
2022/05/24 07:45:49;;;;;;;4.45;3.95;;;21.40;99.90;;;-141.84;52.26;19196.06;5074901;28;20185;-56
2022/05/24 07:48:19;;;;;;;3.70;3.40;;;21.30;99.90;;;-141.84;52.79;19122.91;5074940;28;20191;-54
2022/05/24 07:50:48;;;;;;;5.15;3.60;;;21.00;99.90;;;-141.84;53.18;19086.31;5074818;28;20280;-54
2022/05/24 07:53:16;;;;;;;3.95;3.60;;;20.70;99.90;;;-141.84;53.94;19120.88;5074864;28;20212;-55
2022/05/24 07:55:44;;;;;;;5.18;3.55;;;20.50;99.90;;;-141.84;54.08;19068.03;5074369;28;20739;-55
2022/05/24 07:58:14;;;;;;;3.60;3.30;;;20.40;99.90;;;-141.84;54.60;19043.66;5074592;28;20207;-54
2022/05/24 08:00:42;;;;;;;3.80;3.40;;;20.40;99.90;;;-141.84;54.04;19066.00;5074331;28;20631;-52
2022/05/24 08:03:10;;;;;;;4.20;3.75;;;20.50;99.90;;;-141.84;53.87;19100.53;5074660;28;20205;-54
2022/05/24 08:05:39;;;;;;;3.67;3.38;;;20.50;99.90;;;-141.84;53.55;19059.91;5074203;28;20724;-53
2022/05/24 08:08:10;;;;;;;4.00;3.65;;;20.50;99.90;;;-141.84;53.70;19074.13;5074595;28;20283;-51
2022/05/24 08:10:39;;;;;;;3.42;3.13;;;20.50;99.90;;;-141.84;53.97;19098.50;5074056;28;20199;-54
2022/05/24 08:13:11;;;;;;;3.75;3.45;;;20.50;99.90;;;-141.84;53.44;19124.94;5074630;28;20300;-56
2022/05/24 08:15:41;;;;;;;3.38;3.08;;;20.50;99.90;;;-141.84;54.88;19061.94;5074214;28;20300;-55
2022/05/24 08:18:10;;;;;;;3.38;3.08;;;20.30;99.90;;;-141.84;54.03;19094.44;5074061;28;20671;-53
2022/05/24 08:20:39;;;;;;;3.05;2.85;;;20.40;99.90;;;-141.84;55.14;19021.31;5074007;28;20200;-54
2022/05/24 08:23:07;;;;;;;2.50;2.30;;;20.40;99.90;;;-141.84;54.65;19066.00;5074034;28;20806;-56
2022/05/24 08:25:39;;;;;;;3.10;2.80;;;20.40;99.90;;;-141.84;53.62;19078.19;5074306;28;20181;-51
2022/05/24 08:28:08;;;;;;;3.05;2.83;;;20.30;99.90;;;-141.84;53.96;19092.41;5070446;28;20200;-52
2022/05/24 08:30:39;;;;;;;2.97;2.58;;;20.40;99.90;;;-141.84;53.35;19112.75;5072552;28;20197;-54
2022/05/24 08:33:13;;;;;;;2.70;2.50;;;20.70;99.90;;;-141.84;52.06;19173.69;5071117;28;20268;-53
2022/05/24 08:35:43;;;;;;;2.88;2.67;;;20.90;99.90;;;-141.84;49.54;19332.19;5066085;28;20241;-53
2022/05/24 08:38:13;;;;;;;4.28;2.78;;;21.30;99.90;;;-141.84;49.60;19336.25;5067619;28;20199;-55
2022/05/24 08:40:44;;;;;;;3.15;2.42;;;21.60;99.90;;;-141.84;49.51;19326.09;5072615;28;20243;-54
2022/05/24 08:43:33;;;;;;;2.60;2.30;;;21.80;99.90;;;-141.84;47.64;19401.28;5072983;28;20323;-56
2022/05/24 08:49:02;;;;;;;2.72;2.53;;;22.10;99.90;;;-141.84;48.37;19391.13;5072881;28;20189;-59
2022/05/24 08:51:38;;;;;;;3.13;2.83;;;22.20;99.90;;;-141.84;48.60;19380.97;5070930;28;20196;-60
2022/05/24 08:54:11;;;;;;;3.38;3.13;;;22.10;99.90;;;-141.84;48.90;19336.25;5069986;28;20443;-59
2022/05/24 08:56:47;;;;;;;3.22;3.00;;;22.00;99.90;;;-141.84;49.19;19320.00;5069503;28;20673;-61
2022/05/24 08:59:22;;;;;;;2.80;2.60;;;21.80;99.90;;;-141.84;50.33;19271.25;5052908;28;20232;-63
2022/05/24 09:01:50;;;;;;;2.50;2.30;;;21.60;99.90;;;-141.84;51.61;19214.34;5052574;28;20216;-61
2022/05/24 09:04:20;;;;;;;2.28;2.10;;;21.40;99.90;;;-141.84;52.07;19179.78;5052654;28;20660;-61
2022/05/24 09:07:00;;;;;;;3.22;2.40;;;21.30;99.90;;;-141.84;51.48;19181.81;5052213;28;20243;-61
2022/05/24 09:09:47;;;;;;;2.85;2.60;;;21.30;99.90;;;-141.84;51.78;19236.69;5052946;28;20554;-61
2022/05/24 09:12:30;;;;;;;3.95;2.72;;;21.40;99.90;;;-141.84;52.24;19244.81;5052426;28;20278;-60
2022/05/24 09:15:11;;;;;;;3.13;2.92;;;21.50;99.90;;;-141.84;49.76;19317.97;5052582;28;20189;-60
2022/05/24 09:18:07;;;;;;;3.10;2.88;;;21.70;99.90;;;-141.84;50.33;19315.94;5052305;28;20656;-61
2022/05/24 09:20:40;;;;;;;3.35;3.05;;;21.80;99.90;;;-141.84;50.36;19307.81;5052395;28;20228;-57
2022/05/24 09:23:16;;;;;;;3.33;3.03;;;21.90;99.90;;;-141.84;51.42;19301.72;5051987;28;20197;-64
2022/05/24 09:25:58;;;;;;;3.03;2.78;;;21.90;99.90;;;-141.84;52.11;19234.66;5052980;28;20181;-60
2022/05/24 09:28:50;;;;;;;2.80;2.60;;;21.80;99.90;;;-141.84;50.72;19289.53;5071922;28;20702;-62
2022/05/24 09:31:30;;;;;;;2.67;2.47;;;22.00;99.90;;;-141.84;51.46;19265.13;5072274;28;20201;-61
2022/05/24 09:34:01;;;;;;;2.90;2.55;;;21.90;99.90;;;-141.84;51.61;19200.13;5072185;28;20185;-61
2022/05/24 09:36:43;;;;;;;2.50;2.30;;;21.80;99.90;;;-141.84;52.74;19165.56;5071376;28;20209;-62
2022/05/24 09:39:25;;;;;;;2.50;2.30;;;21.50;99.90;;;-141.84;52.61;19171.66;5071853;28;20192;-60
2022/05/24 09:41:57;;;;;;;2.78;2.58;;;21.40;99.90;;;-141.84;51.99;19187.91;5071813;28;20204;-61
2022/05/24 09:44:27;;;;;;;2.72;2.30;;;21.40;99.90;;;-141.84;53.07;19159.47;5071740;28;20189;-59
2022/05/24 09:46:56;;;;;;;2.10;2.00;;;21.30;99.90;;;-141.84;52.62;19194.03;5072093;28;20193;-62
2022/05/24 09:49:29;;;;;;;2.30;2.10;;;21.30;99.90;;;-141.84;53.47;19171.66;5071867;28;20595;-60
2022/05/24 09:52:12;;;;;;;2.83;2.50;;;21.20;99.90;;;-141.84;52.80;19169.63;5071395;28;20216;-60
2022/05/24 09:54:54;;;;;;;2.10;2.00;;;21.30;99.90;;;-141.84;53.20;19181.81;5071687;28;20223;-60
2022/05/24 09:57:25;;;;;;;3.08;2.53;;;21.50;99.90;;;-141.84;52.71;19208.25;5070693;28;20693;-63
2022/05/24 10:00:09;;;;;;;2.35;2.15;;;21.60;99.90;;;-141.84;51.92;19222.47;5071736;28;20195;-60
2022/05/24 10:02:39;;;;;;;2.40;2.20;;;21.70;99.90;;;-141.84;51.12;19273.28;5071651;28;20193;-61
2022/05/24 10:05:19;;;;;;;3.42;2.10;;;21.80;99.90;;;-141.84;51.59;19265.13;5071514;28;20185;-61
2022/05/24 10:07:59;;;;;;;1.92;1.83;;;22.00;99.90;;;-141.84;51.37;19281.41;5071187;28;20659;-62
2022/05/24 10:10:34;;;;;;;3.65;2.45;;;22.20;99.90;;;-141.84;50.55;19342.34;5071758;28;20188;-60
2022/05/24 10:13:14;;;;;;;2.67;2.40;;;22.30;99.90;;;-141.84;50.32;19374.88;5071498;28;20184;-60
2022/05/24 10:15:55;;;;;;;2.60;2.40;;;22.40;99.90;;;-141.84;50.76;19376.91;5071316;28;20235;-60
2022/05/24 10:18:46;;;;;;;2.40;2.20;;;22.60;99.90;;;-141.84;49.29;19421.63;5071719;28;20612;-59
2022/05/24 10:21:23;;;;;;;2.53;2.33;;;22.90;99.90;;;-141.84;48.90;19431.78;5071258;28;20185;-61
2022/05/24 10:24:02;;;;;;;3.08;2.35;;;23.10;99.90;;;-141.84;49.51;19429.75;5071350;28;20188;-61
2022/05/24 10:26:48;;;;;;;2.67;2.47;;;23.00;99.90;;;-141.84;49.68;19429.75;5071202;28;20201;-61
2022/05/24 10:29:30;;;;;;;2.00;1.90;;;22.90;99.90;;;-141.84;50.05;19380.97;5071461;28;20656;-60
2022/05/24 10:32:06;;;;;;;2.47;2.28;;;22.80;99.90;;;-141.84;50.53;19407.38;5071425;28;20216;-60
2022/05/24 10:38:18;;;;;;;2.55;2.00;;;23.00;99.90;;;-141.84;49.48;19419.59;5065393;28;20212;-60
2022/05/24 10:41:03;;;;;;;3.72;2.50;;;23.00;99.90;;;-141.84;50.31;19417.56;5049537;28;20209;-63
2022/05/24 10:43:55;;;;;;;2.33;2.13;;;23.00;99.90;;;-141.84;50.88;19387.06;5050636;28;20276;-60
2022/05/24 10:46:34;;;;;;;2.83;2.08;;;23.00;99.90;;;-141.84;49.05;19464.28;5050445;28;20199;-54
2022/05/24 10:49:15;;;;;;;2.42;2.00;;;23.10;99.90;;;-141.84;49.95;19427.72;5050778;28;20273;-51
2022/05/24 10:51:53;;;;;;;2.63;2.40;;;23.20;99.90;;;-141.84;50.33;19389.09;5051120;28;20193;-54
2022/05/24 10:54:36;;;;;;;2.60;2.40;;;23.10;99.90;;;-141.84;49.57;19443.97;5071092;28;20208;-56
2022/05/24 10:57:10;;;;;;;3.95;2.47;;;23.10;99.90;;;-141.84;48.36;19470.38;5070561;28;20642;-53
2022/05/24 10:59:58;;;;;;;4.22;1.98;;;23.30;99.90;;;-141.84;48.56;19547.59;5070956;28;20191;-57